Yellow Mule RAWS (NWS)

Jump to table bottom
Date/Time Wind Direction Wind Speed knots Wind Gust knots RH % Accumulated Precip Inches Air Temp Fahrenheit
2023-01-29 16:04 N 3 6 71 0.18 -12
2023-01-29 15:04 N 3 9 72 0.18 -8
2023-01-29 14:04 N 3 7 72 0.18 -6
2023-01-29 13:04 N 3 7 71 0.18 -7
2023-01-29 12:04 N 4 7 70 0.18 -10
2023-01-29 11:04 NNE 3 5 69 0.18 -14
2023-01-29 10:04 N 3 7 68 0.18 -17
2023-01-29 09:04 N 4 7 64 0.18 -26
2023-01-29 08:04 N 6 11 64 0.18 -27
2023-01-29 07:04 N 6 11 64 0.18 -27
2023-01-29 06:04 N 6 9 65 0.18 -26
2023-01-29 05:04 N 4 9 66 0.18 -24
2023-01-29 04:04 N 3 5 67 0.18 -22
2023-01-29 03:04 NNE 2 3 67 0.18 -22
2023-01-29 02:04 NNW 3 4 67 0.18 -23
2023-01-29 01:04 N 3 3 67 0.18 -21
2023-01-29 00:04 N 3 5 68 0.18 -21
2023-01-28 23:04 NNE 3 7 68 0.18 -20
2023-01-28 22:04 N 5 9 69 0.18 -19
2023-01-28 21:04 NNE 3 8 70 0.18 -17
2023-01-28 20:04 NNE 4 7 71 0.18 -15
2023-01-28 19:04 NNE 4 6 73 0.18 -13
2023-01-28 18:04 NNE 3 6 74 0.18 -12
2023-01-28 17:04 NNE 4 9 75 0.18 -8
2023-01-28 16:04 NNE 4 8 76 0.18 -4
2023-01-28 15:04 NNE 3 8 77 0.18 -2
2023-01-28 14:04 N 4 8 79 0.18 6
2023-01-28 13:04 NNE 3 7 78 0.18 2
2023-01-28 12:04 N 3 8 78 0.18 0
2023-01-28 11:04 NNE 4 8 80 0.18 6
2023-01-28 06:04 NNE 3 7 84 0.18 4
2023-01-28 05:04 N 4 10 85 0.18 6
2023-01-28 04:04 SSW 5 11 87 0.18 9
2023-01-28 03:04 SW 8 14 87 0.18 10
2023-01-28 02:04 SSW 6 8 88 0.18 11
2023-01-28 01:04 SSW 3 5 88 0.18 11
2023-01-28 00:04 W 3 6 89 0.18 12
2023-01-27 23:04 SW 5 7 89 0.18 12
2023-01-27 22:04 SW 4 6 88 0.18 12
2023-01-27 21:04 N 3 8 89 0.18 13
2023-01-27 20:04 N 3 10 90 0.18 14
2023-01-27 19:04 NNW 7 13 90 0.18 14
2023-01-27 18:04 N 5 14 91 0.18 16
2023-01-27 17:04 NW 6 16 91 0.18 17
2023-01-27 16:04 WNW 5 10 91 0.18 19
2023-01-27 15:04 WSW 8 17 91 0.18 18